createdAt,value
2022-08-05T00:32:13.142Z,17.80
2022-08-05T01:33:35.553Z,17.29
2022-08-05T01:58:13.575Z,17.21
2022-08-05T02:21:46.881Z,16.88
2022-08-05T02:28:01.778Z,16.91
2022-08-05T02:58:30.885Z,16.81
2022-08-05T03:23:31.644Z,16.57
2022-08-05T04:12:59.226Z,16.24
2022-08-05T04:48:38.381Z,17.16
2022-08-05T05:37:15.834Z,21.24
2022-08-05T05:50:16.293Z,22.39
2022-08-05T06:14:09.594Z,24.25
2022-08-05T06:38:36.412Z,23.29
2022-08-05T07:02:28.508Z,24.62
2022-08-05T07:31:18.452Z,25.49
2022-08-05T07:36:53.168Z,25.01
2022-08-05T07:42:36.403Z,24.78
2022-08-05T07:47:47.024Z,24.72
2022-08-05T07:52:56.694Z,24.62
2022-08-05T07:58:03.057Z,24.76
2022-08-05T08:03:15.962Z,24.74
2022-08-05T08:08:27.717Z,25.34
2022-08-05T08:13:49.266Z,25.74
2022-08-05T08:18:56.994Z,26.17
2022-08-05T08:24:04.995Z,26.45
2022-08-05T08:30:03.338Z,26.90
2022-08-05T08:34:33.593Z,27.28
2022-08-05T08:39:38.167Z,27.21
2022-08-05T08:45:18.645Z,27.27
2022-08-05T08:50:31.581Z,27.12
2022-08-05T08:56:02.948Z,27.15
2022-08-05T09:01:11.051Z,28.09
2022-08-05T09:06:21.236Z,28.23
2022-08-05T09:11:51.202Z,28.25
2022-08-05T09:16:53.876Z,27.68
2022-08-05T09:22:23.111Z,28.12
2022-08-05T09:28:05.219Z,27.36
2022-08-05T09:32:54.234Z,28.22
2022-08-05T09:38:16.199Z,28.40
2022-08-05T09:43:41.042Z,29.15
2022-08-05T09:49:07.606Z,28.86
2022-08-05T09:54:14.710Z,29.45
2022-08-05T09:59:18.217Z,28.30
2022-08-05T10:04:28.679Z,28.49
2022-08-05T10:10:14.460Z,28.14
2022-08-05T10:15:34.164Z,27.95
2022-08-05T10:21:11.967Z,28.73
2022-08-05T10:26:24.332Z,28.86
2022-08-05T10:32:52.206Z,28.86
2022-08-05T10:37:08.212Z,29.44
2022-08-05T10:42:33.848Z,30.12
2022-08-05T10:48:27.624Z,28.92
2022-08-05T10:53:53.104Z,29.82
2022-08-05T11:00:01.819Z,30.21
2022-08-05T11:05:00.240Z,30.88
2022-08-05T11:10:27.175Z,30.19
2022-08-05T11:16:47.810Z,31.30
2022-08-05T11:22:53.623Z,31.05
2022-08-05T11:28:17.499Z,31.34
2022-08-05T11:33:48.143Z,30.73
2022-08-05T11:39:23.688Z,32.42
2022-08-05T11:44:55.065Z,31.52
2022-08-05T11:50:20.758Z,30.70
2022-08-05T11:56:07.753Z,32.90
2022-08-05T12:01:27.778Z,34.15
2022-08-05T12:07:04.173Z,31.60
2022-08-05T12:12:32.885Z,30.58
2022-08-05T12:23:11.294Z,29.81
2022-08-05T12:28:15.767Z,29.43
2022-08-05T12:33:27.525Z,29.56
2022-08-05T12:38:31.565Z,29.16
2022-08-05T12:43:34.712Z,29.14
2022-08-05T12:48:41.800Z,28.99
2022-08-05T12:53:47.440Z,29.96
2022-08-05T12:59:20.775Z,31.23
2022-08-05T13:04:32.684Z,32.02
2022-08-05T13:09:36.082Z,32.15
2022-08-05T13:14:40.132Z,31.66
2022-08-05T13:20:01.814Z,32.14
2022-08-05T13:25:18.697Z,31.28
2022-08-05T13:30:32.477Z,31.03
2022-08-05T13:35:50.314Z,31.73
2022-08-05T13:40:54.796Z,30.73
2022-08-05T13:46:00.504Z,29.98
2022-08-05T13:51:10.954Z,31.00
2022-08-05T13:56:18.817Z,30.88
2022-08-05T14:01:27.387Z,31.10
2022-08-05T14:06:39.244Z,30.30
2022-08-05T14:12:04.013Z,31.57
2022-08-05T14:17:18.263Z,32.68
2022-08-05T14:22:54.746Z,31.79
2022-08-05T14:34:07.728Z,32.40
2022-08-05T14:39:27.116Z,31.73
2022-08-05T14:44:57.469Z,31.97
2022-08-05T14:55:39.793Z,31.87
2022-08-05T15:00:58.256Z,32.51
2022-08-05T15:06:07.803Z,31.78
2022-08-05T15:11:17.541Z,32.24
2022-08-05T15:16:20.498Z,31.79
2022-08-05T15:21:25.208Z,31.16
2022-08-05T15:26:33.408Z,31.21
2022-08-05T15:31:36.147Z,31.27
2022-08-05T15:36:40.540Z,31.10
2022-08-05T15:41:57.703Z,31.43
2022-08-05T15:47:02.483Z,31.03
2022-08-05T15:52:29.042Z,31.52
2022-08-05T15:57:34.683Z,31.89
2022-08-05T16:02:38.074Z,31.80
2022-08-05T16:07:46.510Z,31.64
2022-08-05T16:12:52.432Z,31.29
2022-08-05T16:18:04.497Z,31.05
2022-08-05T16:23:12.851Z,30.47
2022-08-05T16:28:24.276Z,30.31
2022-08-05T16:33:55.627Z,30.09
2022-08-05T16:39:21.662Z,29.57
2022-08-05T16:44:57.130Z,29.62
2022-08-05T16:55:50.476Z,29.29
2022-08-05T17:18:34.992Z,28.18
2022-08-05T17:24:04.503Z,28.18
2022-08-05T17:29:40.819Z,28.24
2022-08-05T17:34:58.249Z,28.24
2022-08-05T17:40:23.609Z,28.06
2022-08-05T17:46:05.400Z,27.78
2022-08-05T17:51:23.801Z,27.46
2022-08-05T17:56:37.926Z,27.34
2022-08-05T18:02:35.536Z,27.03
2022-08-05T18:07:58.869Z,26.84
2022-08-05T18:13:23.295Z,26.76
2022-08-05T18:18:50.124Z,26.78
2022-08-05T18:24:14.761Z,26.55
2022-08-05T18:29:57.031Z,26.24
2022-08-05T18:35:11.521Z,25.85
2022-08-05T18:58:30.556Z,25.28
2022-08-05T19:03:54.900Z,25.18
2022-08-05T19:08:59.548Z,25.05
2022-08-05T19:14:15.204Z,25.01
2022-08-05T19:19:27.245Z,24.79
2022-08-05T19:24:34.503Z,24.37
2022-08-05T19:29:38.392Z,24.24
2022-08-05T19:34:55.161Z,23.31
2022-08-05T19:39:59.554Z,21.97
2022-08-05T19:45:02.489Z,20.94
2022-08-05T19:50:11.957Z,19.80
2022-08-05T19:56:13.899Z,19.51
2022-08-05T20:00:38.222Z,19.01
2022-08-05T20:05:43.182Z,18.33
2022-08-05T20:10:53.463Z,18.52
2022-08-05T20:15:57.507Z,18.32
2022-08-05T20:21:00.743Z,18.13
2022-08-05T20:26:04.496Z,18.01
2022-08-05T20:31:10.031Z,18.69
2022-08-05T20:36:14.239Z,19.20
2022-08-05T20:41:24.244Z,19.40
2022-08-05T20:46:29.714Z,19.12
2022-08-05T20:51:33.687Z,18.99
2022-08-05T20:56:42.121Z,19.04
2022-08-05T21:01:45.873Z,19.06
2022-08-05T21:06:49.807Z,19.05
2022-08-05T21:12:09.679Z,19.05
2022-08-05T21:17:15.422Z,19.11
2022-08-05T21:22:23.267Z,18.94
2022-08-05T21:27:27.490Z,19.03
2022-08-05T21:32:30.833Z,18.93
2022-08-05T21:37:34.910Z,18.80
2022-08-05T21:42:44.922Z,18.76
2022-08-05T21:47:55.940Z,18.75
2022-08-05T21:53:04.454Z,18.76
2022-08-05T21:58:10.405Z,18.79
2022-08-05T22:03:16.036Z,18.62
2022-08-05T22:08:24.158Z,18.60
2022-08-05T22:14:32.341Z,18.29
2022-08-05T22:18:52.453Z,18.19
2022-08-05T22:24:40.294Z,17.96
2022-08-05T22:29:37.191Z,18.16
2022-08-05T22:34:40.125Z,18.24
2022-08-05T22:39:43.447Z,18.32
2022-08-05T22:44:48.356Z,18.36
2022-08-05T22:50:19.552Z,18.08
2022-08-05T22:55:24.382Z,17.98
2022-08-05T23:00:29.255Z,17.79
2022-08-05T23:05:36.049Z,17.89
2022-08-05T23:10:40.764Z,17.79
2022-08-05T23:15:44.728Z,17.63
2022-08-05T23:20:54.742Z,17.57
2022-08-05T23:25:57.453Z,17.47
2022-08-05T23:31:02.297Z,17.69
2022-08-05T23:36:18.892Z,17.70
2022-08-05T23:41:24.696Z,17.70
2022-08-05T23:46:28.822Z,17.57
2022-08-05T23:51:55.075Z,17.80
2022-08-05T23:57:03.306Z,17.53
